Time;durP1;ratioP1;P1;durP2;ratioP2;P2;SDS_P1;SDS_P2;PMS_P1;PMS_P2;Temp;Humidity;BMP_temperature;BMP_pressure;BME280_temperature;BME280_humidity;BME280_pressure;Samples;Min_cycle;Max_cycle;Signal;HPM_P1;HPM_P2
2022/05/29 00:02:03;;;;;;;5.93;1.90;;;;;;;9.70;100.00;101748.63;5240304;28;20029;-67
2022/05/29 00:04:35;;;;;;;8.15;1.90;;;;;;;9.63;100.00;101742.94;5243435;28;20022;-67
2022/05/29 00:07:14;;;;;;;7.38;1.80;;;;;;;9.66;100.00;101749.72;5243445;28;20021;-67
2022/05/29 00:09:48;;;;;;;4.70;1.90;;;;;;;9.64;100.00;101747.22;5242522;28;20067;-67
2022/05/29 00:12:21;;;;;;;7.38;2.17;;;;;;;9.56;100.00;101746.91;5244315;28;20557;-67
2022/05/29 00:14:53;;;;;;;6.75;2.22;;;;;;;9.52;100.00;101740.19;5242217;28;20060;-67
2022/05/29 00:17:24;;;;;;;5.18;1.85;;;;;;;9.49;100.00;101741.22;5225170;28;20025;-66
2022/05/29 00:19:55;;;;;;;7.35;1.90;;;;;;;9.48;100.00;101739.56;5241483;28;20132;-66
2022/05/29 00:22:29;;;;;;;4.85;1.75;;;;;;;9.48;100.00;101734.31;5243525;28;20522;-66
2022/05/29 00:25:02;;;;;;;6.00;1.67;;;;;;;9.42;100.00;101737.34;5243292;28;20040;-66
2022/05/29 00:27:33;;;;;;;7.68;2.13;;;;;;;9.52;100.00;101731.50;5241816;28;20119;-67
2022/05/29 00:30:07;;;;;;;5.65;2.20;;;;;;;9.42;100.00;101729.50;5240437;28;20171;-67
2022/05/29 00:32:39;;;;;;;5.07;1.80;;;;;;;9.36;100.00;101727.28;5242409;28;20504;-66
2022/05/29 00:35:10;;;;;;;4.32;1.67;;;;;;;9.33;100.00;101722.25;5241509;28;20021;-67
2022/05/29 00:37:42;;;;;;;6.43;1.90;;;;;;;9.37;100.00;101725.50;5243418;28;20499;-66
2022/05/29 00:40:38;;;;;;;7.35;2.35;;;;;;;9.53;100.00;101725.34;5240604;28;20025;-67
2022/05/29 00:43:10;;;;;;;5.40;2.20;;;;;;;9.33;100.00;101721.44;5243199;28;20029;-66
2022/05/29 00:45:58;;;;;;;7.65;1.95;;;;;;;9.45;100.00;101715.38;5212919;28;20500;-66
2022/05/29 00:48:29;;;;;;;7.18;2.17;;;;;;;9.29;100.00;101712.09;5212631;28;20408;-67
2022/05/29 00:51:05;;;;;;;6.47;2.10;;;;;;;9.30;100.00;101712.00;5242707;28;20037;-66
2022/05/29 00:53:37;;;;;;;8.93;2.42;;;;;;;9.14;100.00;101706.94;5240764;28;20049;-67
2022/05/29 00:56:12;;;;;;;10.48;2.55;;;;;;;9.25;100.00;101708.84;5239911;28;20033;-67
2022/05/29 00:58:44;;;;;;;6.90;2.20;;;;;;;9.22;100.00;101702.03;5238626;28;20554;-66
2022/05/29 01:01:15;;;;;;;9.00;2.78;;;;;;;9.25;100.00;101701.84;5222677;28;20033;-67
2022/05/29 01:03:47;;;;;;;7.18;2.45;;;;;;;9.27;100.00;101701.72;5241052;28;20383;-67
2022/05/29 01:06:18;;;;;;;6.18;2.30;;;;;;;9.35;100.00;101703.84;5243948;28;20029;-67
2022/05/29 01:08:50;;;;;;;9.23;2.30;;;;;;;9.36;100.00;101695.91;5222585;28;20018;-67
2022/05/29 01:11:28;;;;;;;8.30;2.67;;;;;;;9.48;100.00;101696.88;5239494;28;20132;-67
2022/05/29 01:14:30;;;;;;;8.82;2.65;;;;;;;9.67;100.00;101686.00;5225724;28;20111;-68
2022/05/29 01:17:01;;;;;;;7.22;3.10;;;;;;;9.56;100.00;101686.72;5236496;28;20464;-67
2022/05/29 01:20:06;;;;;;;9.40;2.47;;;;;;;9.79;100.00;101684.34;5219885;28;20591;-67
2022/05/29 01:23:14;;;;;;;6.95;2.55;;;;;;;9.76;100.00;101693.22;5238271;28;20844;-67
2022/05/29 01:26:11;;;;;;;7.85;2.95;;;;;;;9.70;100.00;101676.19;5238382;28;20039;-67
2022/05/29 01:28:51;;;;;;;6.35;2.13;;;;;;;9.72;100.00;101683.91;5237494;28;20022;-67
2022/05/29 01:31:32;;;;;;;9.73;2.83;;;;;;;9.71;100.00;101682.25;5240315;28;21230;-67
2022/05/29 01:34:20;;;;;;;8.52;2.60;;;;;;;9.63;100.00;101674.09;5240664;28;20044;-68
2022/05/29 01:37:01;;;;;;;7.95;2.75;;;;;;;9.58;100.00;101673.53;5238784;28;20025;-67
2022/05/29 01:39:38;;;;;;;5.82;2.33;;;;;;;9.57;100.00;101675.31;5238020;28;20052;-67
2022/05/29 01:42:18;;;;;;;9.73;2.28;;;;;;;9.56;100.00;101675.44;5240578;28;20032;-68
2022/05/29 01:45:00;;;;;;;8.85;3.28;;;;;;;9.50;100.00;101667.03;5237629;28;20508;-68
2022/05/29 01:47:45;;;;;;;7.15;2.60;;;;;;;9.60;100.00;101661.22;5237967;28;20051;-67
2022/05/29 01:50:26;;;;;;;7.40;2.25;;;;;;;9.60;100.00;101661.22;5238993;28;20484;-68
2022/05/29 01:53:10;;;;;;;6.05;2.22;;;;;;;9.55;100.00;101658.91;5237234;28;20041;-68
2022/05/29 01:55:47;;;;;;;8.32;2.67;;;;;;;9.40;100.00;101658.16;5237532;28;20151;-67
2022/05/29 01:58:34;;;;;;;6.72;2.53;;;;;;;9.50;100.00;101659.19;5235078;28;20109;-68
2022/05/29 02:01:10;;;;;;;8.20;3.05;;;;;;;9.31;100.00;101650.91;5237935;28;20033;-67
2022/05/29 02:03:48;;;;;;;7.80;2.88;;;;;;;9.35;100.00;101651.53;5237360;28;20021;-67
2022/05/29 02:06:27;;;;;;;4.18;2.30;;;;;;;9.27;100.00;101647.66;5234815;28;20028;-67
2022/05/29 02:09:08;;;;;;;8.98;2.70;;;;;;;9.31;100.00;101648.28;5238879;28;20021;-67
2022/05/29 02:11:39;;;;;;;4.95;2.20;;;;;;;9.11;100.00;101652.22;5238346;28;20400;-67
2022/05/29 02:14:17;;;;;;;7.53;2.35;;;;;;;9.20;100.00;101643.75;5236378;28;20079;-67
2022/05/29 02:16:59;;;;;;;6.20;2.60;;;;;;;9.15;100.00;101645.84;5236948;28;20032;-67
2022/05/29 02:19:36;;;;;;;8.15;2.75;;;;;;;9.16;100.00;101654.53;5237528;28;20025;-67
2022/05/29 02:22:10;;;;;;;4.60;2.47;;;;;;;9.11;100.00;101656.63;5235655;28;20028;-67
2022/05/29 02:24:49;;;;;;;6.72;2.25;;;;;;;9.12;100.00;101650.44;5240493;28;20480;-67
2022/05/29 02:27:33;;;;;;;8.52;2.40;;;;;;;9.18;100.00;101642.22;5224709;28;20061;-67
2022/05/29 02:30:06;;;;;;;6.50;2.60;;;;;;;9.17;100.00;101641.38;5244886;28;20024;-67
2022/05/29 02:32:43;;;;;;;6.45;2.42;;;;;;;9.21;100.00;101635.00;5243027;28;20029;-68
2022/05/29 02:35:20;;;;;;;7.03;2.60;;;;;;;9.26;100.00;101630.31;5239676;28;20036;-67
2022/05/29 02:38:19;;;;;;;8.23;2.40;;;;;;;9.38;100.00;101633.03;5244501;28;20163;-68
2022/05/29 02:41:09;;;;;;;8.77;2.70;;;;;;;9.29;100.00;101631.06;5241145;28;20112;-67
2022/05/29 02:43:49;;;;;;;6.93;2.20;;;;;;;9.22;100.00;101635.84;5245666;28;20120;-68
2022/05/29 02:46:30;;;;;;;6.65;2.63;;;;;;;9.12;100.00;101640.00;5244159;28;20709;-68
2022/05/29 02:49:11;;;;;;;6.05;2.30;;;;;;;9.16;100.00;101625.78;5244027;28;20080;-68
2022/05/29 02:51:55;;;;;;;7.45;2.75;;;;;;;9.16;100.00;101631.84;5240751;28;20135;-68
2022/05/29 02:54:29;;;;;;;5.10;2.47;;;;;;;9.12;100.00;101626.91;5243868;28;20044;-68
2022/05/29 02:57:02;;;;;;;9.38;3.05;;;;;;;9.11;100.00;101626.09;5239653;28;20393;-67
2022/05/29 02:59:39;;;;;;;5.13;2.20;;;;;;;9.17;100.00;101622.25;5241020;28;20032;-68
2022/05/29 03:02:48;;;;;;;7.22;2.70;;;;;;;9.32;100.00;101618.59;5241302;28;20291;-68
2022/05/29 03:05:59;;;;;;;6.38;2.35;;;;;;;9.39;100.00;101616.41;5240559;28;20025;-67
2022/05/29 03:08:31;;;;;;;5.43;2.30;;;;;;;9.16;100.00;101615.31;5228244;28;20034;-67
2022/05/29 03:11:32;;;;;;;8.48;2.60;;;;;;;9.45;100.00;101611.59;5241684;28;20501;-68
2022/05/29 03:14:05;;;;;;;9.00;2.40;;;;;;;9.23;100.00;101614.81;5243263;28;20087;-68
2022/05/29 03:16:55;;;;;;;;;;;;;;;9.73;100.00;101609.69;5242761;28;20033;-68
2022/05/29 03:19:37;;;;;;;5.18;2.50;;;;;;;9.41;100.00;101611.91;5242646;28;19909;-67
2022/05/29 03:22:22;;;;;;;10.18;3.08;;;;;;;9.42;100.00;101608.34;5244674;28;20032;-68
2022/05/29 03:25:08;;;;;;;5.85;2.95;;;;;;;9.40;100.00;101607.63;5243737;28;20394;-67
2022/05/29 03:27:45;;;;;;;6.22;2.40;;;;;;;9.46;100.00;101609.81;5241470;28;20033;-67
2022/05/29 03:30:20;;;;;;;8.52;2.45;;;;;;;9.44;100.00;101612.53;5244761;28;20032;-67
2022/05/29 03:32:56;;;;;;;7.68;2.67;;;;;;;9.47;100.00;101603.63;5240443;28;20025;-67
2022/05/29 03:35:44;;;;;;;5.40;2.22;;;;;;;9.58;100.00;101605.53;5242198;28;20041;-67
2022/05/29 03:38:15;;;;;;;9.63;2.50;;;;;;;9.44;100.00;101599.47;5239648;28;20063;-67
2022/05/29 03:40:48;;;;;;;8.05;2.63;;;;;;;9.42;100.00;101590.88;5241570;28;20511;-67
2022/05/29 03:43:19;;;;;;;7.72;2.45;;;;;;;9.44;100.00;101593.41;5242417;28;20631;-67
2022/05/29 03:45:50;;;;;;;9.63;2.70;;;;;;;9.45;100.00;101588.06;5242000;28;20013;-67
2022/05/29 03:48:22;;;;;;;6.70;2.45;;;;;;;9.52;100.00;101587.66;5242684;28;20032;-67
2022/05/29 03:50:53;;;;;;;11.02;2.45;;;;;;;9.57;100.00;101583.75;5241568;28;20556;-67
2022/05/29 03:53:24;;;;;;;9.55;2.60;;;;;;;9.58;100.00;101587.22;5244093;28;20516;-67
2022/05/29 03:55:55;;;;;;;10.70;2.65;;;;;;;9.60;100.00;101575.72;5241673;28;20480;-68
2022/05/29 03:58:27;;;;;;;11.07;2.85;;;;;;;9.66;100.00;101579.66;5242162;28;20424;-68
2022/05/29 04:00:58;;;;;;;10.48;2.13;;;;;;;9.63;100.00;101577.28;5239504;28;20104;-67
2022/05/29 04:03:29;;;;;;;10.60;2.63;;;;;;;9.68;100.00;101575.19;5243667;28;20099;-67
2022/05/29 04:06:01;;;;;;;10.68;3.17;;;;;;;9.60;100.00;101578.31;5244478;28;20108;-67
2022/05/29 04:14:12;;;;;;;9.30;2.60;;;;;;;9.73;100.00;101578.28;5247343;28;20033;-67
2022/05/29 04:16:43;;;;;;;9.82;2.90;;;;;;;9.73;100.00;101580.91;5243875;28;20037;-67
2022/05/29 04:19:15;;;;;;;11.70;3.78;;;;;;;9.69;100.00;101576.84;5248115;28;20043;-68
2022/05/29 04:21:48;;;;;;;7.07;2.70;;;;;;;9.81;100.00;101575.16;5245324;28;20087;-67
2022/05/29 04:24:20;;;;;;;;;;;;;;;10.28;100.00;101576.22;5244473;28;20032;-67
2022/05/29 04:26:52;;;;;;;11.05;3.17;;;;;;;9.83;100.00;101574.09;5244446;28;19909;-67
2022/05/29 04:29:23;;;;;;;10.45;2.60;;;;;;;9.84;100.00;101575.78;5245570;28;20036;-67
2022/05/29 04:34:45;;;;;;;11.55;3.30;;;;;;;9.88;100.00;101579.00;5246282;28;20553;-67
2022/05/29 04:37:16;;;;;;;7.50;2.72;;;;;;;9.88;100.00;101576.41;5245430;28;20104;-67
2022/05/29 04:39:47;;;;;;;5.80;2.45;;;;;;;9.91;100.00;101584.03;5247165;28;20017;-67
2022/05/29 04:42:18;;;;;;;7.03;2.35;;;;;;;9.90;100.00;101591.06;5242880;28;20384;-67
2022/05/29 04:44:50;;;;;;;9.10;3.30;;;;;;;9.87;100.00;101591.28;5245761;28;20431;-67
2022/05/29 04:47:21;;;;;;;9.50;3.22;;;;;;;9.84;100.00;101588.84;5242608;28;20370;-67
2022/05/29 04:49:52;;;;;;;9.30;3.25;;;;;;;9.87;100.00;101596.50;5225696;28;20060;-66
2022/05/29 04:52:24;;;;;;;7.32;2.80;;;;;;;9.78;100.00;101589.31;5243792;28;20033;-67
2022/05/29 04:54:55;;;;;;;8.70;3.40;;;;;;;9.78;100.00;101585.84;5244468;28;20428;-66
2022/05/29 04:57:26;;;;;;;6.38;2.92;;;;;;;9.73;100.00;101583.53;5242926;28;20381;-66
2022/05/29 04:59:57;;;;;;;9.80;3.58;;;;;;;9.79;100.00;101585.75;5240197;28;20571;-66
2022/05/29 05:02:29;;;;;;;9.50;3.47;;;;;;;9.81;100.00;101578.63;5243084;28;20393;-66
2022/05/29 05:05:01;;;;;;;6.65;3.22;;;;;;;9.89;100.00;101578.91;5226722;28;20436;-66
2022/05/29 05:07:32;;;;;;;7.18;3.38;;;;;;;9.81;100.00;101570.78;5244999;28;20022;-66
2022/05/29 05:10:10;;;;;;;7.05;2.83;;;;;;;9.89;100.00;101571.06;5223008;28;20029;-66
2022/05/29 05:12:42;;;;;;;6.05;3.20;;;;;;;9.89;100.00;101572.84;5244530;28;20033;-66
2022/05/29 05:15:16;;;;;;;6.80;2.97;;;;;;;9.97;100.00;101568.75;5243010;28;20032;-66
2022/05/29 05:17:47;;;;;;;8.40;3.00;;;;;;;9.96;100.00;101577.56;5242088;28;20112;-66
2022/05/29 05:20:18;;;;;;;8.50;3.45;;;;;;;10.03;100.00;101571.88;5245638;28;20014;-66
2022/05/29 05:22:52;;;;;;;7.55;3.30;;;;;;;9.99;100.00;101574.69;5241690;28;20366;-66
2022/05/29 05:25:23;;;;;;;9.45;3.33;;;;;;;9.97;100.00;101566.13;5243819;28;20029;-66
2022/05/29 05:27:55;;;;;;;11.07;3.53;;;;;;;10.02;100.00;101568.41;5244245;28;20029;-66
2022/05/29 05:30:26;;;;;;;6.63;2.90;;;;;;;10.06;100.00;101559.41;5244061;28;20029;-66
2022/05/29 05:32:57;;;;;;;8.07;3.60;;;;;;;10.10;100.00;101573.94;5240296;28;20575;-66
2022/05/29 05:35:29;;;;;;;6.88;3.60;;;;;;;10.12;100.00;101556.34;5244145;28;20680;-66
2022/05/29 05:38:00;;;;;;;5.72;3.42;;;;;;;10.24;100.00;101568.56;5241276;28;20033;-66
2022/05/29 05:40:31;;;;;;;6.90;3.20;;;;;;;10.30;100.00;101563.84;5243462;28;20116;-66
2022/05/29 05:43:03;;;;;;;7.57;3.00;;;;;;;10.32;100.00;101568.03;5244571;28;20063;-66
2022/05/29 05:45:34;;;;;;;10.63;3.55;;;;;;;10.35;100.00;101573.06;5235151;28;21072;-66
2022/05/29 05:48:06;;;;;;;8.18;3.63;;;;;;;10.33;100.00;101556.59;5231436;28;22058;-66
2022/05/29 05:50:38;;;;;;;8.75;3.13;;;;;;;10.26;100.00;101559.78;5236331;28;20642;-66
2022/05/29 05:53:09;;;;;;;8.48;3.67;;;;;;;10.35;100.00;101557.34;5224514;28;20049;-67
2022/05/29 05:55:41;;;;;;;12.18;3.40;;;;;;;10.37;100.00;101565.91;5225443;28;20037;-67
2022/05/29 05:58:12;;;;;;;7.47;3.70;;;;;;;10.39;100.00;101560.56;5239586;28;20021;-66
2022/05/29 06:00:44;;;;;;;8.32;3.60;;;;;;;10.44;100.00;101561.06;5240210;28;20029;-67
2022/05/29 06:03:16;;;;;;;8.68;3.88;;;;;;;10.46;100.00;101562.63;5236513;28;20036;-67
2022/05/29 06:05:48;;;;;;;7.22;3.60;;;;;;;10.65;100.00;101553.44;5243100;28;20102;-67
2022/05/29 06:08:19;;;;;;;7.20;3.63;;;;;;;10.54;100.00;101558.63;5242138;28;20107;-67
2022/05/29 06:10:50;;;;;;;7.22;3.03;;;;;;;10.62;100.00;101559.72;5243928;28;20057;-67
2022/05/29 06:13:22;;;;;;;6.85;3.15;;;;;;;10.79;100.00;101555.00;5240948;28;20048;-67
2022/05/29 06:15:53;;;;;;;8.85;3.20;;;;;;;10.83;100.00;101551.22;5244924;28;20099;-67
2022/05/29 06:18:25;;;;;;;5.28;3.08;;;;;;;10.88;100.00;101556.97;5237634;28;20080;-66
2022/05/29 06:20:58;;;;;;;7.03;3.15;;;;;;;10.91;100.00;101556.72;5234064;28;20033;-67
2022/05/29 06:23:32;;;;;;;10.73;3.78;;;;;;;11.04;100.00;101554.03;5235591;28;20029;-67
2022/05/29 06:26:10;;;;;;;9.40;3.25;;;;;;;11.03;100.00;101565.47;5241037;28;20024;-66
2022/05/29 06:28:42;;;;;;;9.85;3.60;;;;;;;11.06;100.00;101557.34;5243614;28;20021;-66
2022/05/29 06:31:13;;;;;;;9.70;3.58;;;;;;;11.13;100.00;101553.31;5239634;28;20040;-66
2022/05/29 06:33:45;;;;;;;9.27;3.33;;;;;;;11.22;100.00;101549.19;5241633;28;20035;-67
2022/05/29 06:36:23;;;;;;;7.68;3.63;;;;;;;11.32;100.00;101550.97;5241706;28;20041;-66
2022/05/29 06:38:56;;;;;;;8.43;3.35;;;;;;;11.43;100.00;101556.22;5246836;28;20692;-66
2022/05/29 06:41:29;;;;;;;9.52;3.30;;;;;;;11.48;100.00;101560.28;5249365;28;20400;-67
2022/05/29 06:44:00;;;;;;;5.72;2.90;;;;;;;11.43;100.00;101558.00;5247877;28;20540;-67
2022/05/29 06:46:32;;;;;;;11.68;3.08;;;;;;;11.56;100.00;101557.91;5228357;28;20050;-67
2022/05/29 06:49:03;;;;;;;9.02;2.78;;;;;;;11.55;100.00;101554.44;5231687;28;20020;-67
2022/05/29 06:51:35;;;;;;;8.65;3.10;;;;;;;11.64;100.00;101560.78;5245220;28;20041;-67
2022/05/29 06:54:12;;;;;;;8.13;3.15;;;;;;;11.87;100.00;101562.47;5248566;28;20045;-69
2022/05/29 06:56:44;;;;;;;9.10;2.97;;;;;;;11.67;100.00;101565.78;5218403;28;20067;-67
2022/05/29 06:59:15;;;;;;;7.55;2.90;;;;;;;11.70;100.00;101565.53;5241436;28;20064;-67
2022/05/29 07:07:28;;;;;;;7.55;2.75;;;;;;;11.90;100.00;101561.41;5240868;28;20059;-67
2022/05/29 07:09:59;;;;;;;8.00;2.60;;;;;;;11.99;100.00;101552.78;5241691;28;20362;-67
2022/05/29 07:12:31;;;;;;;8.57;2.72;;;;;;;12.18;100.00;101555.59;5239920;28;20395;-67
2022/05/29 07:15:08;;;;;;;6.30;2.45;;;;;;;12.35;100.00;101556.03;5241333;28;20468;-67
2022/05/29 07:17:39;;;;;;;5.13;2.63;;;;;;;12.50;100.00;101544.28;5243421;28;20037;-67
2022/05/29 07:20:12;;;;;;;7.05;2.80;;;;;;;12.65;100.00;101542.19;5242214;28;20009;-67
2022/05/29 07:22:44;;;;;;;6.97;2.72;;;;;;;12.73;100.00;101539.78;5225205;28;20040;-67
2022/05/29 07:25:15;;;;;;;5.85;2.28;;;;;;;12.61;100.00;101539.00;5240793;28;20037;-67
2022/05/29 07:27:46;;;;;;;10.50;2.92;;;;;;;12.76;100.00;101538.66;5240246;28;20029;-67
2022/05/29 07:30:18;;;;;;;6.95;2.33;;;;;;;12.78;100.00;101539.38;5239410;28;20033;-66
2022/05/29 07:32:49;;;;;;;7.70;2.25;;;;;;;12.78;100.00;101544.66;5237568;28;20067;-66
2022/05/29 07:35:21;;;;;;;7.32;2.22;;;;;;;12.94;100.00;101541.56;5238484;28;20108;-66
2022/05/29 07:37:52;;;;;;;6.38;2.03;;;;;;;12.84;100.00;101536.22;5243518;28;20017;-67
2022/05/29 07:40:24;;;;;;;5.00;2.00;;;;;;;12.86;100.00;101529.88;5248717;28;20091;-66
2022/05/29 07:45:52;;;;;;;9.32;2.47;;;;;;;13.30;100.00;101535.03;5238435;28;20317;-67
2022/05/29 07:48:26;;;;;;;5.30;2.15;;;;;;;13.41;100.00;101534.97;5244995;28;20478;-67
2022/05/29 07:50:57;;;;;;;6.38;2.53;;;;;;;13.55;100.00;101528.47;5247476;28;20048;-67
2022/05/29 07:53:29;;;;;;;5.65;2.08;;;;;;;13.51;100.00;101532.34;5243833;28;20120;-67
2022/05/29 07:56:02;;;;;;;7.57;3.10;;;;;;;13.61;100.00;101527.97;5238827;28;20055;-67
2022/05/29 07:58:33;;;;;;;;;;;;;;;14.11;100.00;101533.22;5241532;28;20075;-67
2022/05/29 08:01:05;;;;;;;6.53;1.85;;;;;;;13.48;100.00;101527.34;5239693;28;20123;-66
2022/05/29 08:03:38;;;;;;;5.63;2.50;;;;;;;13.56;100.00;101528.38;5241971;28;20405;-66
2022/05/29 08:06:09;;;;;;;7.60;2.08;;;;;;;13.67;100.00;101532.69;5242056;28;20021;-66
2022/05/29 08:08:44;;;;;;;4.95;1.73;;;;;;;13.72;100.00;101527.88;5225079;28;20029;-66
2022/05/29 08:11:17;;;;;;;5.75;1.95;;;;;;;13.61;100.00;101533.22;5244170;28;20030;-66
2022/05/29 08:13:48;;;;;;;;;;;;;;;14.25;100.00;101535.47;5240058;28;20033;-67
2022/05/29 08:16:20;;;;;;;5.78;1.67;;;;;;;14.12;100.00;101524.34;5244246;28;19918;-66
2022/05/29 08:18:53;;;;;;;13.40;2.47;;;;;;;14.17;100.00;101521.28;5223053;28;20084;-66
2022/05/29 08:21:24;;;;;;;7.18;2.30;;;;;;;14.34;100.00;101521.44;5241596;28;20119;-66
2022/05/29 08:32:28;;;;;;;7.75;2.10;;;;;;;14.75;100.00;101508.97;5242269;28;20049;-67
2022/05/29 08:35:00;;;;;;;8.10;2.13;;;;;;;15.25;100.00;101503.44;5240819;28;20508;-67
2022/05/29 08:37:31;;;;;;;7.80;2.13;;;;;;;15.58;100.00;101506.50;5244243;28;20040;-67
2022/05/29 08:40:03;;;;;;;8.27;2.10;;;;;;;15.43;100.00;101505.31;5242294;28;20366;-67
2022/05/29 08:42:35;;;;;;;8.02;2.08;;;;;;;15.40;100.00;101510.88;5241540;28;20029;-67
2022/05/29 08:45:08;;;;;;;6.45;2.08;;;;;;;15.41;100.00;101507.25;5240525;28;20088;-66
2022/05/29 08:47:39;;;;;;;;;;;;;;;15.85;100.00;101510.16;5245258;28;20037;-67
2022/05/29 08:50:19;;;;;;;5.57;1.90;;;;;;;15.17;100.00;101505.13;5242556;28;19996;-66
2022/05/29 08:53:01;;;;;;;7.05;2.00;;;;;;;14.90;100.00;101501.47;5243731;28;20439;-67
2022/05/29 08:56:03;;;;;;;7.23;2.20;;;;;;;15.28;100.00;101503.16;5240161;28;20095;-67
2022/05/29 08:58:57;;;;;;;7.03;1.73;;;;;;;15.79;100.00;101501.81;5221810;28;20644;-67
2022/05/29 09:01:37;;;;;;;8.20;2.35;;;;;;;15.81;100.00;101499.88;5240070;28;20500;-66
2022/05/29 09:04:24;;;;;;;6.28;1.90;;;;;;;15.89;100.00;101498.28;5237439;28;20120;-67
2022/05/29 09:06:57;;;;;;;8.77;2.13;;;;;;;15.70;100.00;101499.25;5238810;28;20048;-66
2022/05/29 09:09:39;;;;;;;6.35;1.73;;;;;;;15.69;100.00;101497.59;5237534;28;20485;-67
2022/05/29 09:12:17;;;;;;;6.35;1.60;;;;;;;15.50;100.00;101501.13;5243147;28;20021;-67
2022/05/29 09:14:52;;;;;;;5.72;1.70;;;;;;;15.45;100.00;101490.16;5235811;28;20051;-67
2022/05/29 09:17:31;;;;;;;7.20;1.85;;;;;;;15.56;100.00;101485.50;5238996;28;20498;-67
2022/05/29 09:20:21;;;;;;;4.85;1.90;;;;;;;15.72;100.00;101482.28;5242428;28;20025;-67
2022/05/29 09:22:56;;;;;;;5.18;2.03;;;;;;;15.79;100.00;101485.97;5242020;28;20025;-66
2022/05/29 09:25:34;;;;;;;7.72;1.90;;;;;;;16.01;100.00;101486.53;5219763;28;20025;-67
2022/05/29 09:28:15;;;;;;;4.65;1.40;;;;;;;15.79;100.00;101493.88;5242749;28;20041;-67
2022/05/29 09:30:46;;;;;;;5.60;1.50;;;;;;;15.60;100.00;101480.75;5241383;28;20111;-67
2022/05/29 09:33:26;;;;;;;6.93;1.83;;;;;;;15.39;100.00;101481.03;5237867;28;20031;-67
2022/05/29 09:36:35;;;;;;;6.22;1.67;;;;;;;15.74;100.00;101476.84;5242263;28;20361;-67
2022/05/29 09:39:27;;;;;;;6.38;1.60;;;;;;;15.58;100.00;101475.63;5241916;28;20029;-67
2022/05/29 09:42:21;;;;;;;5.75;1.40;;;;;;;15.32;100.00;101472.00;5239945;28;20074;-67
2022/05/29 09:45:11;;;;;;;;;;;;;;;15.72;100.00;101471.72;5240200;28;20281;-67
2022/05/29 09:50:46;;;;;;;5.78;1.65;;;;;;;15.75;100.00;101468.75;5236819;28;20056;-67
2022/05/29 09:53:19;;;;;;;;;;;;;;;16.45;100.00;101460.16;5236688;28;20076;-67
2022/05/29 09:56:03;;;;;;;4.28;2.13;;;;;;;16.24;100.00;101465.75;5239543;28;19937;-67
2022/05/29 09:58:45;;;;;;;4.38;1.45;;;;;;;16.41;100.00;101458.81;5239758;28;20036;-67
2022/05/29 10:01:37;;;;;;;3.47;1.50;;;;;;;16.85;100.00;101449.03;5238632;28;20025;-67
2022/05/29 10:04:37;;;;;;;4.88;1.83;;;;;;;17.20;100.00;101444.63;5242270;28;20039;-67
2022/05/29 10:07:17;;;;;;;4.65;1.70;;;;;;;17.37;100.00;101437.56;5226839;28;20034;-68
2022/05/29 10:10:08;;;;;;;4.70;1.73;;;;;;;17.58;100.00;101437.09;5240864;28;20036;-67
2022/05/29 10:12:40;;;;;;;5.28;2.05;;;;;;;17.59;100.00;101442.25;5224110;28;20057;-67
2022/05/29 10:15:26;;;;;;;3.27;1.63;;;;;;;17.68;100.00;101443.09;5241886;28;20063;-67
2022/05/29 10:18:04;;;;;;;5.30;1.75;;;;;;;17.12;100.00;101458.66;5241996;28;20445;-66
2022/05/29 10:20:44;;;;;;;7.63;2.47;;;;;;;16.99;100.00;101448.47;5239476;28;20647;-67
2022/05/29 10:23:34;;;;;;;5.32;1.60;;;;;;;16.57;100.00;101455.44;5244715;28;20028;-67
2022/05/29 10:26:08;;;;;;;2.83;1.10;;;;;;;15.84;100.00;101455.66;5240061;28;20029;-67
2022/05/29 10:28:41;;;;;;;2.75;1.00;;;;;;;15.54;100.00;101453.16;5239604;28;20025;-66
2022/05/29 10:31:20;;;;;;;3.05;1.08;;;;;;;15.48;100.00;101444.97;5243568;28;20029;-67
2022/05/29 10:34:10;;;;;;;3.25;1.13;;;;;;;15.61;100.00;101441.97;5244937;28;20565;-67
2022/05/29 10:36:42;;;;;;;3.28;1.10;;;;;;;15.07;100.00;101444.47;5246247;28;20697;-67
2022/05/29 10:39:22;;;;;;;6.97;1.33;;;;;;;15.13;100.00;101430.69;5240059;28;20025;-67
2022/05/29 10:41:55;;;;;;;3.90;1.20;;;;;;;14.88;100.00;101439.25;5238322;28;20075;-67
2022/05/29 10:44:46;;;;;;;4.97;1.80;;;;;;;14.99;100.00;101445.19;5233004;28;20053;-67
2022/05/29 10:47:41;;;;;;;4.25;2.00;;;;;;;14.82;100.00;101446.78;5241345;28;20029;-67
2022/05/29 10:50:27;;;;;;;6.57;2.20;;;;;;;14.72;100.00;101453.03;5240249;28;20021;-67
2022/05/29 10:53:11;;;;;;;19.02;4.30;;;;;;;14.33;100.00;101459.16;5234130;28;20484;-67
2022/05/29 10:56:10;;;;;;;12.35;2.78;;;;;;;14.35;100.00;101466.91;5237434;28;20426;-68
2022/05/29 10:58:42;;;;;;;8.30;2.40;;;;;;;13.86;100.00;101448.47;5237117;28;20029;-67
2022/05/29 11:04:40;;;;;;;6.10;2.63;;;;;;;14.16;100.00;101445.84;5240839;28;20037;-67
2022/05/29 11:08:00;;;;;;;7.75;2.10;;;;;;;14.61;100.00;101448.75;5221735;28;20045;-67
2022/05/29 11:10:44;;;;;;;4.40;2.10;;;;;;;14.39;100.00;101441.13;5156527;28;20050;-68
2022/05/29 11:13:21;;;;;;;4.60;1.85;;;;;;;14.66;100.00;101440.41;5244170;28;20039;-67
2022/05/29 11:16:04;;;;;;;4.60;1.80;;;;;;;14.77;100.00;101443.75;5242398;28;20476;-67
2022/05/29 11:18:41;;;;;;;5.90;2.10;;;;;;;14.90;100.00;101442.59;5238648;28;20029;-68
2022/05/29 11:21:39;;;;;;;5.70;1.40;;;;;;;14.96;100.00;101442.81;5245138;28;20037;-67
2022/05/29 11:24:36;;;;;;;5.75;1.75;;;;;;;14.72;100.00;101438.03;5231742;28;20044;-68
2022/05/29 11:27:25;;;;;;;3.80;1.80;;;;;;;14.72;100.00;101448.59;5247628;28;20576;-68
2022/05/29 11:30:34;;;;;;;3.95;1.50;;;;;;;14.73;100.00;101444.97;5248226;28;20407;-68
2022/05/29 11:33:16;;;;;;;4.03;1.35;;;;;;;14.58;100.00;101449.88;5239929;28;20082;-68
2022/05/29 11:36:04;;;;;;;4.80;1.83;;;;;;;14.47;100.00;101449.16;5245664;28;20028;-67
2022/05/29 11:39:01;;;;;;;3.63;1.15;;;;;;;14.17;100.00;101445.72;5225789;28;20025;-67
2022/05/29 11:41:56;;;;;;;3.08;1.27;;;;;;;13.95;100.00;101448.63;5241536;28;20066;-67
2022/05/29 11:44:43;;;;;;;5.05;1.27;;;;;;;13.98;100.00;101443.06;5199019;28;20501;-67
2022/05/29 11:53:40;;;;;;;2.70;1.10;;;;;;;14.14;100.00;101435.44;5242306;28;20489;-67
2022/05/29 11:56:38;;;;;;;4.88;1.30;;;;;;;13.88;100.00;101433.34;5223870;28;20040;-67
2022/05/29 11:59:37;;;;;;;3.28;0.80;;;;;;;14.20;100.00;101429.59;5241547;28;20060;-68
2022/05/29 12:02:30;;;;;;;4.70;1.00;;;;;;;14.29;100.00;101431.44;5238899;28;20032;-67
2022/05/29 12:05:39;;;;;;;4.35;1.00;;;;;;;14.31;100.00;101434.75;5241485;28;20044;-67
2022/05/29 12:08:23;;;;;;;2.78;1.33;;;;;;;14.66;100.00;101427.22;5119932;29;20039;-67
2022/05/29 12:10:54;;;;;;;;;;;;;;;15.37;100.00;101426.69;5228487;28;20124;-67
2022/05/29 12:13:31;;;;;;;2.53;0.80;;;;;;;15.05;100.00;101420.88;5244386;28;20011;-67
2022/05/29 12:16:10;;;;;;;2.00;0.65;;;;;;;15.14;100.00;101419.16;5244925;28;20037;-67
2022/05/29 12:18:46;;;;;;;1.60;0.70;;;;;;;15.20;100.00;101417.75;5238507;28;20032;-67
2022/05/29 12:21:27;;;;;;;2.22;0.80;;;;;;;15.15;100.00;101419.97;5250521;28;20391;-67
2022/05/29 12:24:00;;;;;;;2.15;0.68;;;;;;;15.01;100.00;101418.66;5246361;28;20029;-67
2022/05/29 12:26:59;;;;;;;3.97;1.02;;;;;;;15.32;100.00;101414.75;5249245;28;20391;-67
2022/05/29 12:29:55;;;;;;;2.00;0.70;;;;;;;15.45;100.00;101408.28;5236911;28;20041;-67
2022/05/29 12:32:32;;;;;;;1.58;0.77;;;;;;;15.30;100.00;101414.09;5232675;28;20076;-67
2022/05/29 12:35:15;;;;;;;2.63;0.75;;;;;;;15.24;100.00;101408.56;5246647;28;20075;-67
2022/05/29 12:38:04;;;;;;;3.38;1.13;;;;;;;15.20;100.00;101413.31;5247425;28;20541;-67
2022/05/29 12:40:41;;;;;;;4.05;0.93;;;;;;;14.97;100.00;101410.22;5248394;28;20036;-67
2022/05/29 12:43:53;;;;;;;2.67;0.90;;;;;;;15.32;100.00;101408.66;5251217;28;20028;-67
2022/05/29 12:46:53;;;;;;;2.35;0.60;;;;;;;15.49;100.00;101414.94;5251342;28;20028;-67
2022/05/29 12:49:52;;;;;;;2.28;0.80;;;;;;;15.32;100.00;101414.75;5246603;28;20053;-67
2022/05/29 12:52:54;;;;;;;4.20;0.82;;;;;;;15.25;100.00;101418.13;5249279;28;20055;-67